sensor_id;sensor_type;location;lat;lon;timestamp;pressure;altitude;pressure_sealevel;temperature;humidity
50380;BME280;37474;59.468;18.040;2022-10-26T00:01:34;100434.19;;;9.36;100.00
50380;BME280;37474;59.468;18.040;2022-10-26T00:04:04;100414.34;;;9.19;100.00
50380;BME280;37474;59.468;18.040;2022-10-26T00:06:32;100439.88;;;9.42;100.00
50380;BME280;37474;59.468;18.040;2022-10-26T00:09:02;100448.88;;;9.35;100.00
50380;BME280;37474;59.468;18.040;2022-10-26T00:11:33;100450.75;;;9.32;100.00
50380;BME280;37474;59.468;18.040;2022-10-26T00:14:01;100456.31;;;9.41;100.00
50380;BME280;37474;59.468;18.040;2022-10-26T00:16:31;100457.47;;;9.36;100.00
50380;BME280;37474;59.468;18.040;2022-10-26T00:19:01;100440.53;;;9.13;100.00
50380;BME280;37474;59.468;18.040;2022-10-26T00:21:28;100457.41;;;9.20;100.00
50380;BME280;37474;59.468;18.040;2022-10-26T00:23:58;100458.00;;;9.25;100.00
50380;BME280;37474;59.468;18.040;2022-10-26T00:26:27;100455.50;;;9.23;100.00
50380;BME280;37474;59.468;18.040;2022-10-26T00:28:56;100457.56;;;9.17;100.00
50380;BME280;37474;59.468;18.040;2022-10-26T00:31:26;100448.94;;;8.99;100.00
50380;BME280;37474;59.468;18.040;2022-10-26T00:33:56;100468.25;;;9.26;100.00
50380;BME280;37474;59.468;18.040;2022-10-26T00:36:25;100468.22;;;9.28;100.00
50380;BME280;37474;59.468;18.040;2022-10-26T00:38:55;100469.06;;;9.29;100.00
50380;BME280;37474;59.468;18.040;2022-10-26T00:41:28;100470.72;;;9.30;100.00
50380;BME280;37474;59.468;18.040;2022-10-26T00:43:59;100480.38;;;9.26;100.00
50380;BME280;37474;59.468;18.040;2022-10-26T00:46:31;100452.44;;;9.15;100.00
50380;BME280;37474;59.468;18.040;2022-10-26T00:49:05;100465.38;;;9.15;100.00
50380;BME280;37474;59.468;18.040;2022-10-26T00:51:41;100474.84;;;9.16;100.00
50380;BME280;37474;59.468;18.040;2022-10-26T00:54:16;100479.53;;;9.08;100.00
50380;BME280;37474;59.468;18.040;2022-10-26T00:56:49;100487.00;;;9.14;100.00
50380;BME280;37474;59.468;18.040;2022-10-26T00:59:22;100475.41;;;9.21;100.00
50380;BME280;37474;59.468;18.040;2022-10-26T01:01:52;100466.91;;;9.19;100.00
50380;BME280;37474;59.468;18.040;2022-10-26T01:04:20;100419.00;;;8.95;100.00
50380;BME280;37474;59.468;18.040;2022-10-26T01:06:48;100485.09;;;9.18;100.00
50380;BME280;37474;59.468;18.040;2022-10-26T01:09:19;100442.19;;;8.79;100.00
50380;BME280;37474;59.468;18.040;2022-10-26T01:11:47;100492.16;;;8.97;100.00
50380;BME280;37474;59.468;18.040;2022-10-26T01:14:17;100475.28;;;8.90;100.00
50380;BME280;37474;59.468;18.040;2022-10-26T01:16:58;100495.34;;;9.02;100.00
50380;BME280;37474;59.468;18.040;2022-10-26T01:22:59;100474.53;;;8.69;100.00
50380;BME280;37474;59.468;18.040;2022-10-26T01:25:43;100434.00;;;8.52;100.00
50380;BME280;37474;59.468;18.040;2022-10-26T01:28:32;100500.91;;;8.94;100.00
50380;BME280;37474;59.468;18.040;2022-10-26T01:31:10;100510.69;;;8.88;100.00
50380;BME280;37474;59.468;18.040;2022-10-26T01:33:47;100506.13;;;8.93;100.00
50380;BME280;37474;59.468;18.040;2022-10-26T01:36:25;100498.84;;;8.84;100.00
50380;BME280;37474;59.468;18.040;2022-10-26T01:39:07;100507.13;;;8.90;100.00
50380;BME280;37474;59.468;18.040;2022-10-26T01:41:44;100511.16;;;8.96;100.00
50380;BME280;37474;59.468;18.040;2022-10-26T01:44:17;100507.47;;;8.83;100.00
50380;BME280;37474;59.468;18.040;2022-10-26T01:46:52;100520.78;;;8.75;100.00
50380;BME280;37474;59.468;18.040;2022-10-26T01:49:26;100518.59;;;8.85;100.00
50380;BME280;37474;59.468;18.040;2022-10-26T01:51:57;100520.06;;;8.71;100.00
50380;BME280;37474;59.468;18.040;2022-10-26T01:54:27;100516.31;;;8.60;100.00
50380;BME280;37474;59.468;18.040;2022-10-26T01:56:58;100518.97;;;8.58;100.00
50380;BME280;37474;59.468;18.040;2022-10-26T01:59:51;100519.41;;;8.49;100.00
50380;BME280;37474;59.468;18.040;2022-10-26T02:02:53;100517.09;;;8.43;100.00
50380;BME280;37474;59.468;18.040;2022-10-26T02:05:33;100521.44;;;8.42;100.00
50380;BME280;37474;59.468;18.040;2022-10-26T02:08:13;100525.19;;;8.35;100.00
50380;BME280;37474;59.468;18.040;2022-10-26T02:11:00;100528.44;;;8.40;100.00
50380;BME280;37474;59.468;18.040;2022-10-26T02:13:37;100510.28;;;8.21;100.00
50380;BME280;37474;59.468;18.040;2022-10-26T02:16:17;100538.38;;;8.29;100.00
50380;BME280;37474;59.468;18.040;2022-10-26T02:18:55;100539.47;;;8.24;100.00
50380;BME280;37474;59.468;18.040;2022-10-26T02:21:35;100545.69;;;8.19;100.00
50380;BME280;37474;59.468;18.040;2022-10-26T02:24:05;100550.00;;;8.19;100.00
50380;BME280;37474;59.468;18.040;2022-10-26T02:26:38;100549.56;;;8.09;100.00
50380;BME280;37474;59.468;18.040;2022-10-26T02:29:10;100557.47;;;8.06;100.00
50380;BME280;37474;59.468;18.040;2022-10-26T02:31:42;100552.13;;;8.11;100.00
50380;BME280;37474;59.468;18.040;2022-10-26T02:34:18;100564.31;;;8.07;100.00
50380;BME280;37474;59.468;18.040;2022-10-26T02:36:54;100564.56;;;8.01;100.00
50380;BME280;37474;59.468;18.040;2022-10-26T02:39:24;100547.72;;;7.92;100.00
50380;BME280;37474;59.468;18.040;2022-10-26T02:42:00;100570.00;;;7.95;100.00
50380;BME280;37474;59.468;18.040;2022-10-26T02:44:32;100572.25;;;8.03;100.00
50380;BME280;37474;59.468;18.040;2022-10-26T02:47:05;100578.41;;;8.00;100.00
50380;BME280;37474;59.468;18.040;2022-10-26T02:49:34;100576.84;;;7.96;100.00
50380;BME280;37474;59.468;18.040;2022-10-26T02:52:07;100575.28;;;7.92;100.00
50380;BME280;37474;59.468;18.040;2022-10-26T02:54:47;100572.63;;;7.93;100.00
50380;BME280;37474;59.468;18.040;2022-10-26T02:57:18;100578.50;;;7.97;100.00
50380;BME280;37474;59.468;18.040;2022-10-26T02:59:52;100548.72;;;7.90;100.00
50380;BME280;37474;59.468;18.040;2022-10-26T03:02:21;100531.69;;;7.65;100.00
50380;BME280;37474;59.468;18.040;2022-10-26T03:04:51;100584.97;;;7.87;100.00
50380;BME280;37474;59.468;18.040;2022-10-26T03:07:24;100590.00;;;7.90;100.00
50380;BME280;37474;59.468;18.040;2022-10-26T03:09:52;100579.03;;;7.85;100.00
50380;BME280;37474;59.468;18.040;2022-10-26T03:12:20;100586.53;;;7.91;100.00
50380;BME280;37474;59.468;18.040;2022-10-26T03:14:52;100534.78;;;7.53;100.00
50380;BME280;37474;59.468;18.040;2022-10-26T03:17:20;100584.94;;;7.88;100.00
50380;BME280;37474;59.468;18.040;2022-10-26T03:19:47;100573.31;;;7.78;100.00
50380;BME280;37474;59.468;18.040;2022-10-26T03:22:21;100592.34;;;7.96;100.00
50380;BME280;37474;59.468;18.040;2022-10-26T03:24:49;100568.78;;;7.63;100.00
50380;BME280;37474;59.468;18.040;2022-10-26T03:27:17;100598.06;;;7.82;100.00
50380;BME280;37474;59.468;18.040;2022-10-26T03:29:45;100592.72;;;7.87;100.00
50380;BME280;37474;59.468;18.040;2022-10-26T03:32:13;100620.34;;;7.85;100.00
50380;BME280;37474;59.468;18.040;2022-10-26T03:34:40;100593.03;;;7.79;100.00
50380;BME280;37474;59.468;18.040;2022-10-26T03:37:10;100613.94;;;7.93;100.00
50380;BME280;37474;59.468;18.040;2022-10-26T03:39:41;100626.53;;;7.81;100.00
50380;BME280;37474;59.468;18.040;2022-10-26T03:42:09;100602.66;;;7.76;100.00
50380;BME280;37474;59.468;18.040;2022-10-26T03:44:37;100587.50;;;7.68;100.00
50380;BME280;37474;59.468;18.040;2022-10-26T03:47:07;100624.19;;;7.75;100.00
50380;BME280;37474;59.468;18.040;2022-10-26T03:49:35;100616.34;;;7.78;100.00
50380;BME280;37474;59.468;18.040;2022-10-26T03:52:04;100624.75;;;7.83;100.00
50380;BME280;37474;59.468;18.040;2022-10-26T03:54:34;100595.06;;;7.73;100.00
50380;BME280;37474;59.468;18.040;2022-10-26T03:57:04;100633.94;;;7.68;100.00
50380;BME280;37474;59.468;18.040;2022-10-26T03:59:32;100627.69;;;7.74;100.00
50380;BME280;37474;59.468;18.040;2022-10-26T04:02:01;100626.41;;;7.84;100.00
50380;BME280;37474;59.468;18.040;2022-10-26T04:04:29;100646.22;;;7.83;100.00
50380;BME280;37474;59.468;18.040;2022-10-26T04:06:59;100642.09;;;7.79;100.00
50380;BME280;37474;59.468;18.040;2022-10-26T04:09:29;100645.59;;;7.77;100.00
50380;BME280;37474;59.468;18.040;2022-10-26T04:11:59;100644.34;;;7.87;100.00
50380;BME280;37474;59.468;18.040;2022-10-26T04:14:28;100652.72;;;7.92;100.00
50380;BME280;37474;59.468;18.040;2022-10-26T04:16:56;100646.63;;;7.94;100.00
50380;BME280;37474;59.468;18.040;2022-10-26T04:19:26;100654.84;;;7.82;100.00
50380;BME280;37474;59.468;18.040;2022-10-26T04:21:56;100624.13;;;7.56;100.00
50380;BME280;37474;59.468;18.040;2022-10-26T04:24:24;100661.09;;;7.77;100.00
50380;BME280;37474;59.468;18.040;2022-10-26T04:26:53;100662.19;;;7.71;100.00
50380;BME280;37474;59.468;18.040;2022-10-26T04:29:23;100662.84;;;7.76;100.00
50380;BME280;37474;59.468;18.040;2022-10-26T04:31:52;100666.25;;;7.77;100.00
50380;BME280;37474;59.468;18.040;2022-10-26T04:34:22;100671.22;;;7.81;100.00
50380;BME280;37474;59.468;18.040;2022-10-26T04:36:52;100679.06;;;7.80;100.00
50380;BME280;37474;59.468;18.040;2022-10-26T04:39:21;100679.63;;;7.86;100.00
50380;BME280;37474;59.468;18.040;2022-10-26T04:41:52;100672.56;;;7.70;100.00
50380;BME280;37474;59.468;18.040;2022-10-26T04:44:24;100687.56;;;7.82;100.00
50380;BME280;37474;59.468;18.040;2022-10-26T04:46:55;100690.94;;;7.84;100.00
50380;BME280;37474;59.468;18.040;2022-10-26T04:49:23;100675.59;;;7.59;100.00
50380;BME280;37474;59.468;18.040;2022-10-26T04:51:53;100672.16;;;7.58;100.00
50380;BME280;37474;59.468;18.040;2022-10-26T04:54:23;100690.94;;;7.84;100.00
50380;BME280;37474;59.468;18.040;2022-10-26T04:56:51;100664.06;;;7.67;100.00
50380;BME280;37474;59.468;18.040;2022-10-26T04:59:20;100703.19;;;7.79;100.00
50380;BME280;37474;59.468;18.040;2022-10-26T05:01:50;100669.94;;;7.49;100.00
50380;BME280;37474;59.468;18.040;2022-10-26T05:04:20;100708.59;;;7.73;100.00
50380;BME280;37474;59.468;18.040;2022-10-26T05:06:51;100666.72;;;7.44;100.00
50380;BME280;37474;59.468;18.040;2022-10-26T05:09:21;100691.38;;;7.51;100.00
50380;BME280;37474;59.468;18.040;2022-10-26T05:11:48;100717.34;;;7.68;100.00
50380;BME280;37474;59.468;18.040;2022-10-26T05:14:18;100719.69;;;7.53;100.00
50380;BME280;37474;59.468;18.040;2022-10-26T05:16:49;100720.09;;;7.64;100.00
50380;BME280;37474;59.468;18.040;2022-10-26T05:19:17;100735.00;;;7.57;100.00
50380;BME280;37474;59.468;18.040;2022-10-26T05:21:50;100737.16;;;7.46;100.00
50380;BME280;37474;59.468;18.040;2022-10-26T05:24:19;100730.06;;;7.51;100.00
50380;BME280;37474;59.468;18.040;2022-10-26T05:26:47;100698.63;;;7.41;100.00
50380;BME280;37474;59.468;18.040;2022-10-26T05:29:17;100735.00;;;7.57;100.00
50380;BME280;37474;59.468;18.040;2022-10-26T05:31:44;100716.59;;;7.45;100.00
50380;BME280;37474;59.468;18.040;2022-10-26T05:34:12;100716.44;;;7.48;100.00
50380;BME280;37474;59.468;18.040;2022-10-26T05:36:44;100756.22;;;7.64;100.00
50380;BME280;37474;59.468;18.040;2022-10-26T05:39:13;100756.81;;;7.49;100.00
50380;BME280;37474;59.468;18.040;2022-10-26T05:41:41;100758.63;;;7.68;100.00
50380;BME280;37474;59.468;18.040;2022-10-26T05:44:13;100719.41;;;7.38;100.00
50380;BME280;37474;59.468;18.040;2022-10-26T05:46:41;100770.81;;;7.65;100.00
50380;BME280;37474;59.468;18.040;2022-10-26T05:49:09;100724.41;;;7.20;100.00
50380;BME280;37474;59.468;18.040;2022-10-26T05:51:41;100779.69;;;7.58;100.00
50380;BME280;37474;59.468;18.040;2022-10-26T05:54:08;100790.06;;;7.56;100.00
50380;BME280;37474;59.468;18.040;2022-10-26T05:56:41;100791.00;;;7.54;100.00
50380;BME280;37474;59.468;18.040;2022-10-26T05:59:14;100793.44;;;7.58;100.00
50380;BME280;37474;59.468;18.040;2022-10-26T06:01:53;100793.44;;;7.58;100.00
50380;BME280;37474;59.468;18.040;2022-10-26T06:04:35;100794.97;;;7.40;100.00
50380;BME280;37474;59.468;18.040;2022-10-26T06:07:10;100798.88;;;7.51;100.00
50380;BME280;37474;59.468;18.040;2022-10-26T06:09:43;100763.50;;;7.31;100.00
50380;BME280;37474;59.468;18.040;2022-10-26T06:12:13;100809.25;;;7.49;100.00
50380;BME280;37474;59.468;18.040;2022-10-26T06:14:48;100806.66;;;7.49;100.00
50380;BME280;37474;59.468;18.040;2022-10-26T06:17:35;100822.28;;;7.46;100.00
50380;BME280;37474;59.468;18.040;2022-10-26T06:20:21;100770.81;;;7.20;100.00
50380;BME280;37474;59.468;18.040;2022-10-26T06:23:00;100795.59;;;7.24;100.00
50380;BME280;37474;59.468;18.040;2022-10-26T06:25:40;100820.09;;;7.35;100.00
50380;BME280;37474;59.468;18.040;2022-10-26T06:28:22;100821.81;;;7.35;100.00
50380;BME280;37474;59.468;18.040;2022-10-26T06:30:57;100826.38;;;7.52;100.00
50380;BME280;37474;59.468;18.040;2022-10-26T06:33:25;100829.19;;;7.46;100.00
50380;BME280;37474;59.468;18.040;2022-10-26T06:36:04;100832.00;;;7.38;100.00
50380;BME280;37474;59.468;18.040;2022-10-26T06:38:38;100834.03;;;7.30;100.00
50380;BME280;37474;59.468;18.040;2022-10-26T06:41:12;100835.41;;;7.40;100.00
50380;BME280;37474;59.468;18.040;2022-10-26T06:43:48;100849.69;;;7.49;100.00
50380;BME280;37474;59.468;18.040;2022-10-26T06:46:25;100852.00;;;7.56;100.00
50380;BME280;37474;59.468;18.040;2022-10-26T06:49:06;100795.91;;;7.14;100.00
50380;BME280;37474;59.468;18.040;2022-10-26T06:51:40;100855.69;;;7.49;100.00
50380;BME280;37474;59.468;18.040;2022-10-26T06:54:15;100813.25;;;7.11;100.00
50380;BME280;37474;59.468;18.040;2022-10-26T06:56:48;100825.41;;;7.31;100.00
50380;BME280;37474;59.468;18.040;2022-10-26T06:59:30;100854.69;;;7.53;100.00
50380;BME280;37474;59.468;18.040;2022-10-26T07:02:00;100862.47;;;7.52;100.00
50380;BME280;37474;59.468;18.040;2022-10-26T07:04:32;100849.25;;;7.61;100.00
50380;BME280;37474;59.468;18.040;2022-10-26T07:07:00;100855.69;;;7.49;100.00
50380;BME280;37474;59.468;18.040;2022-10-26T07:09:30;100864.84;;;7.58;100.00
50380;BME280;37474;59.468;18.040;2022-10-26T07:12:00;100841.56;;;7.36;100.00
50380;BME280;37474;59.468;18.040;2022-10-26T07:14:29;100849.00;;;7.44;100.00
50380;BME280;37474;59.468;18.040;2022-10-26T07:17:01;100872.19;;;7.68;100.00
50380;BME280;37474;59.468;18.040;2022-10-26T07:19:31;100856.66;;;7.47;100.00
50380;BME280;37474;59.468;18.040;2022-10-26T07:21:59;100881.72;;;7.66;100.00
50380;BME280;37474;59.468;18.040;2022-10-26T07:24:29;100846.84;;;7.56;100.00
50380;BME280;37474;59.468;18.040;2022-10-26T07:26:59;100891.91;;;7.70;100.00
50380;BME280;37474;59.468;18.040;2022-10-26T07:29:29;100837.97;;;7.40;100.00
50380;BME280;37474;59.468;18.040;2022-10-26T07:31:59;100895.47;;;7.67;100.00
50380;BME280;37474;59.468;18.040;2022-10-26T07:34:29;100899.78;;;7.66;100.00
50380;BME280;37474;59.468;18.040;2022-10-26T07:36:58;100879.97;;;7.44;100.00
50380;BME280;37474;59.468;18.040;2022-10-26T07:39:28;100915.38;;;7.63;100.00
50380;BME280;37474;59.468;18.040;2022-10-26T07:42:00;100912.00;;;7.61;100.00
50380;BME280;37474;59.468;18.040;2022-10-26T07:44:31;100918.72;;;7.65;100.00
50380;BME280;37474;59.468;18.040;2022-10-26T07:46:59;100922.34;;;7.61;100.00
50380;BME280;37474;59.468;18.040;2022-10-26T07:49:29;100921.28;;;7.67;100.00
50380;BME280;37474;59.468;18.040;2022-10-26T07:51:59;100901.19;;;7.52;100.00
50380;BME280;37474;59.468;18.040;2022-10-26T07:54:27;100908.81;;;7.78;100.00
50380;BME280;37474;59.468;18.040;2022-10-26T07:56:57;100920.81;;;7.79;100.00
50380;BME280;37474;59.468;18.040;2022-10-26T07:59:28;100920.59;;;7.85;100.00
50380;BME280;37474;59.468;18.040;2022-10-26T08:01:56;100926.03;;;8.01;100.00
50380;BME280;37474;59.468;18.040;2022-10-26T08:04:26;100933.53;;;8.07;100.00
50380;BME280;37474;59.468;18.040;2022-10-26T08:06:56;100935.16;;;8.10;100.00
50380;BME280;37474;59.468;18.040;2022-10-26T08:09:24;100926.56;;;8.09;100.00
50380;BME280;37474;59.468;18.040;2022-10-26T08:11:53;100884.16;;;7.93;100.00
50380;BME280;37474;59.468;18.040;2022-10-26T08:14:23;100934.13;;;8.37;100.00
50380;BME280;37474;59.468;18.040;2022-10-26T08:16:53;100938.22;;;8.43;100.00
50380;BME280;37474;59.468;18.040;2022-10-26T08:19:21;100905.44;;;8.21;100.00
50380;BME280;37474;59.468;18.040;2022-10-26T08:21:50;100944.28;;;8.18;100.00
50380;BME280;37474;59.468;18.040;2022-10-26T08:24:18;100951.72;;;8.28;100.00
50380;BME280;37474;59.468;18.040;2022-10-26T08:26:48;100952.81;;;8.20;100.00
50380;BME280;37474;59.468;18.040;2022-10-26T08:29:18;100950.97;;;8.24;100.00
50380;BME280;37474;59.468;18.040;2022-10-26T08:31:46;100952.56;;;8.05;100.00
50380;BME280;37474;59.468;18.040;2022-10-26T08:34:17;100961.06;;;7.85;100.00
50380;BME280;37474;59.468;18.040;2022-10-26T08:36:45;100966.44;;;7.79;100.00
50380;BME280;37474;59.468;18.040;2022-10-26T08:39:13;100952.00;;;7.73;100.00
50380;BME280;37474;59.468;18.040;2022-10-26T08:41:43;100967.88;;;7.86;100.00
50380;BME280;37474;59.468;18.040;2022-10-26T08:44:21;100976.16;;;7.96;100.00
50380;BME280;37474;59.468;18.040;2022-10-26T08:46:54;100945.03;;;7.75;100.00
50380;BME280;37474;59.468;18.040;2022-10-26T08:49:26;100979.44;;;7.99;100.00
50380;BME280;37474;59.468;18.040;2022-10-26T08:51:59;100981.63;;;7.86;100.00
50380;BME280;37474;59.468;18.040;2022-10-26T08:54:37;100982.00;;;7.76;100.00
50380;BME280;37474;59.468;18.040;2022-10-26T08:57:14;100986.72;;;7.64;100.00
50380;BME280;37474;59.468;18.040;2022-10-26T08:59:47;100971.13;;;7.67;100.00
50380;BME280;37474;59.468;18.040;2022-10-26T09:02:17;100943.38;;;7.49;100.00
50380;BME280;37474;59.468;18.040;2022-10-26T09:04:47;101002.44;;;7.82;100.00
50380;BME280;37474;59.468;18.040;2022-10-26T09:07:26;100999.00;;;7.83;100.00
50380;BME280;37474;59.468;18.040;2022-10-26T09:10:04;100993.94;;;8.03;100.00
50380;BME280;37474;59.468;18.040;2022-10-26T09:12:43;100946.69;;;7.78;100.00
50380;BME280;37474;59.468;18.040;2022-10-26T09:15:21;100999.59;;;8.13;100.00
50380;BME280;37474;59.468;18.040;2022-10-26T09:17:57;101009.41;;;8.03;100.00
50380;BME280;37474;59.468;18.040;2022-10-26T09:20:51;100972.75;;;7.70;100.00
50380;BME280;37474;59.468;18.040;2022-10-26T09:23:35;101009.41;;;8.03;100.00
50380;BME280;37474;59.468;18.040;2022-10-26T09:26:12;101011.69;;;8.12;100.00
50380;BME280;37474;59.468;18.040;2022-10-26T09:28:43;100997.63;;;7.96;100.00
50380;BME280;37474;59.468;18.040;2022-10-26T09:31:17;101017.16;;;8.27;100.00
50380;BME280;37474;59.468;18.040;2022-10-26T09:33:46;100978.91;;;7.91;100.00
50380;BME280;37474;59.468;18.040;2022-10-26T09:36:21;101016.94;;;8.33;100.00
50380;BME280;37474;59.468;18.040;2022-10-26T09:38:54;100988.72;;;8.28;100.00
50380;BME280;37474;59.468;18.040;2022-10-26T09:41:26;100983.72;;;8.24;100.00
50380;BME280;37474;59.468;18.040;2022-10-26T09:44:01;101028.59;;;8.44;100.00
50380;BME280;37474;59.468;18.040;2022-10-26T09:46:36;101027.09;;;8.39;100.00
50380;BME280;37474;59.468;18.040;2022-10-26T09:49:12;100987.06;;;8.26;100.00
50380;BME280;37474;59.468;18.040;2022-10-26T09:51:43;101023.63;;;8.62;100.00
50380;BME280;37474;59.468;18.040;2022-10-26T09:54:15;101028.97;;;8.57;100.00
50380;BME280;37474;59.468;18.040;2022-10-26T09:56:49;101008.88;;;8.42;100.00
50380;BME280;37474;59.468;18.040;2022-10-26T09:59:21;101035.75;;;8.60;100.00
50380;BME280;37474;59.468;18.040;2022-10-26T10:01:51;101045.91;;;8.64;100.00
50380;BME280;37474;59.468;18.040;2022-10-26T10:04:22;101011.66;;;8.59;100.00
50380;BME280;37474;59.468;18.040;2022-10-26T10:07:10;101039.56;;;8.95;100.00
50380;BME280;37474;59.468;18.040;2022-10-26T10:09:42;101018.88;;;8.73;100.00
50380;BME280;37474;59.468;18.040;2022-10-26T10:12:18;101045.31;;;8.80;100.00
50380;BME280;37474;59.468;18.040;2022-10-26T10:14:56;101054.09;;;8.76;100.00
50380;BME280;37474;59.468;18.040;2022-10-26T10:17:25;101059.63;;;8.66;100.00
50380;BME280;37474;59.468;18.040;2022-10-26T10:19:53;101066.97;;;8.55;100.00
50380;BME280;37474;59.468;18.040;2022-10-26T10:22:25;101035.81;;;8.35;100.00
50380;BME280;37474;59.468;18.040;2022-10-26T10:24:54;101065.38;;;8.51;100.00
50380;BME280;37474;59.468;18.040;2022-10-26T10:27:27;101059.16;;;8.32;100.00
50380;BME280;37474;59.468;18.040;2022-10-26T10:29:57;101059.84;;;8.38;100.00
50380;BME280;37474;59.468;18.040;2022-10-26T10:32:32;101036.31;;;8.21;100.00
50380;BME280;37474;59.468;18.040;2022-10-26T10:35:22;101057.28;;;8.37;100.00
50380;BME280;37474;59.468;18.040;2022-10-26T10:37:56;101061.75;;;8.32;100.00
50380;BME280;37474;59.468;18.040;2022-10-26T10:40:25;100988.75;;;7.80;100.00
50380;BME280;37474;59.468;18.040;2022-10-26T10:43:06;101062.50;;;8.35;100.00
50380;BME280;37474;59.468;18.040;2022-10-26T10:45:37;101031.88;;;8.25;100.00
50380;BME280;37474;59.468;18.040;2022-10-26T10:48:14;101080.31;;;8.66;100.00
50380;BME280;37474;59.468;18.040;2022-10-26T10:50:54;101080.34;;;8.65;100.00
50380;BME280;37474;59.468;18.040;2022-10-26T10:53:26;101087.81;;;8.49;100.00
50380;BME280;37474;59.468;18.040;2022-10-26T10:58:53;101093.75;;;8.53;100.00
50380;BME280;37474;59.468;18.040;2022-10-26T11:01:30;101096.09;;;8.59;100.00
50380;BME280;37474;59.468;18.040;2022-10-26T11:04:10;101095.94;;;8.63;100.00
50380;BME280;37474;59.468;18.040;2022-10-26T11:06:42;101068.72;;;8.06;100.00
50380;BME280;37474;59.468;18.040;2022-10-26T11:09:17;101115.31;;;8.27;100.00
50380;BME280;37474;59.468;18.040;2022-10-26T11:11:49;101115.38;;;8.25;100.00
50380;BME280;37474;59.468;18.040;2022-10-26T11:14:24;101116.38;;;8.21;100.00
50380;BME280;37474;59.468;18.040;2022-10-26T11:16:56;101097.41;;;8.22;100.00
50380;BME280;37474;59.468;18.040;2022-10-26T11:19:32;101127.34;;;8.28;100.00
50380;BME280;37474;59.468;18.040;2022-10-26T11:22:04;101136.03;;;8.25;100.00
50380;BME280;37474;59.468;18.040;2022-10-26T11:24:38;101130.13;;;8.21;100.00
50380;BME280;37474;59.468;18.040;2022-10-26T11:27:14;101136.94;;;8.24;100.00
50380;BME280;37474;59.468;18.040;2022-10-26T11:29:49;101088.75;;;8.00;100.00
50380;BME280;37474;59.468;18.040;2022-10-26T11:32:21;101136.06;;;8.00;100.00
50380;BME280;37474;59.468;18.040;2022-10-26T11:34:57;101139.38;;;8.04;100.00
50380;BME280;37474;59.468;18.040;2022-10-26T11:37:30;101136.91;;;8.01;100.00
50380;BME280;37474;59.468;18.040;2022-10-26T11:40:13;101137.22;;;8.16;100.00
50380;BME280;37474;59.468;18.040;2022-10-26T11:42:46;101093.59;;;7.84;100.00
50380;BME280;37474;59.468;18.040;2022-10-26T11:45:22;101111.19;;;7.98;100.00
50380;BME280;37474;59.468;18.040;2022-10-26T11:47:53;101133.81;;;8.14;100.00
50380;BME280;37474;59.468;18.040;2022-10-26T11:50:26;101108.88;;;7.90;100.00
50380;BME280;37474;59.468;18.040;2022-10-26T11:52:58;101108.50;;;8.01;100.00
50380;BME280;37474;59.468;18.040;2022-10-26T11:55:28;101157.59;;;8.24;100.00
50380;BME280;37474;59.468;18.040;2022-10-26T11:57:56;101166.78;;;8.08;100.00
50380;BME280;37474;59.468;18.040;2022-10-26T12:00:26;101166.78;;;8.08;100.00
50380;BME280;37474;59.468;18.040;2022-10-26T12:03:03;101151.00;;;8.15;100.00
50380;BME280;37474;59.468;18.040;2022-10-26T12:05:41;101158.69;;;7.92;100.00
50380;BME280;37474;59.468;18.040;2022-10-26T12:08:15;101168.13;;;7.93;100.00
50380;BME280;37474;59.468;18.040;2022-10-26T12:10:50;101155.53;;;7.84;100.00
50380;BME280;37474;59.468;18.040;2022-10-26T12:13:31;101166.25;;;7.72;100.00
50380;BME280;37474;59.468;18.040;2022-10-26T12:16:07;101168.19;;;7.91;100.00
50380;BME280;37474;59.468;18.040;2022-10-26T12:18:43;101159.31;;;7.74;100.00
50380;BME280;37474;59.468;18.040;2022-10-26T12:21:24;101111.19;;;7.46;100.00
50380;BME280;37474;59.468;18.040;2022-10-26T12:23:59;101181.56;;;7.78;100.00
50380;BME280;37474;59.468;18.040;2022-10-26T12:26:38;101177.19;;;7.80;100.00
50380;BME280;37474;59.468;18.040;2022-10-26T12:29:13;101183.13;;;7.82;100.00
50380;BME280;37474;59.468;18.040;2022-10-26T12:31:49;101181.56;;;7.78;100.00
50380;BME280;37474;59.468;18.040;2022-10-26T12:34:22;101146.69;;;7.64;100.00
50380;BME280;37474;59.468;18.040;2022-10-26T12:37:21;101179.50;;;7.87;100.00
50380;BME280;37474;59.468;18.040;2022-10-26T12:39:49;101180.75;;;8.02;100.00
50380;BME280;37474;59.468;18.040;2022-10-26T12:42:28;101179.91;;;8.02;100.00
50380;BME280;37474;59.468;18.040;2022-10-26T12:45:14;101138.56;;;7.77;100.00
50380;BME280;37474;59.468;18.040;2022-10-26T12:48:03;101185.50;;;7.88;100.00
50380;BME280;37474;59.468;18.040;2022-10-26T12:50:52;101186.94;;;7.97;100.00
50380;BME280;37474;59.468;18.040;2022-10-26T12:53:21;101188.16;;;7.86;100.00
50380;BME280;37474;59.468;18.040;2022-10-26T12:56:05;101183.22;;;8.05;100.00
50380;BME280;37474;59.468;18.040;2022-10-26T12:59:15;101196.16;;;8.04;100.00
50380;BME280;37474;59.468;18.040;2022-10-26T13:01:58;101200.50;;;8.03;100.00
50380;BME280;37474;59.468;18.040;2022-10-26T13:07:35;101208.25;;;8.03;100.00
50380;BME280;37474;59.468;18.040;2022-10-26T13:10:06;101209.34;;;7.96;100.00
50380;BME280;37474;59.468;18.040;2022-10-26T13:12:47;101180.31;;;7.89;100.00
50380;BME280;37474;59.468;18.040;2022-10-26T13:15:23;101210.81;;;8.03;100.00
50380;BME280;37474;59.468;18.040;2022-10-26T13:17:57;101210.09;;;8.00;100.00
50380;BME280;37474;59.468;18.040;2022-10-26T13:20:28;101168.69;;;7.76;100.00